X  Schließen METAR Luftfahrt Wetterdaten     LIPX Verona-Villafranca Valerio Catullo Airport
Temperatur
72°F Temperatur
30°F Taupunkt
22% Feuchtigkeit



Wind
8 MPS
13 KM/S
4 M/S
7 KTS



320°
NW
Aktuelle Wetterlage

Teilweise bewölkt Teilweise bewölkt
Luftdruck 996.95 (hPa) - 29.44 (inHg)
Sichtweite 6 (Meile) - 9.7 (Km)
Flughafen
Flughafen Code LIPX

Position : Verona-Villafranca Valerio Catullo Airport
Entfernung: 0 (mi)

Metar:
LIPX 161520Z 32007KT 9999 FEW050 22/M01 Q0997

Zeit: 16-04-2024 15:20 CEST